createdAt,value
2022-08-22T00:00:38.064Z,75.76
2022-08-22T00:01:38.072Z,75.86
2022-08-22T00:02:38.081Z,76.06
2022-08-22T00:02:42.864Z,60.15
2022-08-22T00:03:01.452Z,67.79
2022-08-22T00:03:01.688Z,68.08
2022-08-22T00:03:08.441Z,68.72
2022-08-22T00:03:12.193Z,55.66
2022-08-22T00:03:12.822Z,67.88
2022-08-22T00:03:38.024Z,75.96
2022-08-22T00:04:38.031Z,75.96
2022-08-22T00:05:37.998Z,76.06
2022-08-22T00:06:38.014Z,76.06
2022-08-22T00:07:38.005Z,75.96
2022-08-22T00:08:37.964Z,76.16
2022-08-22T00:09:38.927Z,76.36
2022-08-22T00:10:37.934Z,76.06
2022-08-22T00:11:37.951Z,76.06
2022-08-22T00:12:37.947Z,76.30
2022-08-22T00:13:37.906Z,76.40
2022-08-22T00:14:37.893Z,76.50
2022-08-22T00:15:43.368Z,76.50
2022-08-22T00:16:38.880Z,76.60
2022-08-22T00:17:37.874Z,76.60
2022-08-22T00:18:37.869Z,76.70
2022-08-22T00:19:37.850Z,76.90
2022-08-22T00:20:37.822Z,76.90
2022-08-22T00:21:37.822Z,77.14
2022-08-22T00:22:37.825Z,77.34
2022-08-22T00:23:37.830Z,77.44
2022-08-22T00:24:37.780Z,77.55
2022-08-22T00:25:37.776Z,77.64
2022-08-22T00:26:38.854Z,77.75
2022-08-22T00:27:37.748Z,77.84
2022-08-22T00:28:38.774Z,78.05
2022-08-22T00:29:37.730Z,78.08
2022-08-22T00:30:37.722Z,78.39
2022-08-22T00:31:37.722Z,78.49
2022-08-22T00:32:37.703Z,78.39
2022-08-22T00:33:37.684Z,78.25
2022-08-22T00:34:37.685Z,78.25
2022-08-22T00:35:40.481Z,78.15
2022-08-22T00:36:38.684Z,78.25
2022-08-22T00:37:37.686Z,78.05
2022-08-22T00:38:37.640Z,78.05
2022-08-22T00:39:37.638Z,77.95
2022-08-22T00:40:37.604Z,77.95
2022-08-22T00:41:37.593Z,78.25
2022-08-22T00:42:37.586Z,78.15
2022-08-22T00:43:37.608Z,78.25
2022-08-22T00:44:37.562Z,78.25
2022-08-22T00:45:37.557Z,78.49
2022-08-22T00:46:37.558Z,78.59
2022-08-22T00:47:37.518Z,78.69
2022-08-22T00:48:37.520Z,78.89
2022-08-22T00:49:37.532Z,78.99
2022-08-22T00:50:37.499Z,79.09
2022-08-22T00:51:37.503Z,79.09
2022-08-22T00:52:37.468Z,79.19
2022-08-22T00:53:37.501Z,79.29
2022-08-22T00:54:37.463Z,79.29
2022-08-22T00:55:37.450Z,79.19
2022-08-22T00:56:37.422Z,79.39
2022-08-22T00:57:37.421Z,79.49
2022-08-22T00:58:37.424Z,79.39
2022-08-22T00:59:37.617Z,79.29
2022-08-22T01:00:37.405Z,79.39
2022-08-22T01:01:37.400Z,79.49
2022-08-22T01:02:37.353Z,79.63
2022-08-22T01:03:37.353Z,79.73
2022-08-22T01:04:37.353Z,79.73
2022-08-22T01:05:37.512Z,79.73
2022-08-22T01:06:37.329Z,79.73
2022-08-22T01:07:37.998Z,79.83
2022-08-22T01:08:37.290Z,79.73
2022-08-22T01:09:37.275Z,79.83
2022-08-22T01:10:37.296Z,79.83
2022-08-22T01:11:37.263Z,79.93
2022-08-22T01:12:37.268Z,79.93
2022-08-22T01:13:37.261Z,79.93
2022-08-22T01:14:37.219Z,80.04
2022-08-22T01:15:37.256Z,80.24
2022-08-22T01:16:37.217Z,80.33
2022-08-22T01:17:37.213Z,80.44
2022-08-22T01:18:37.220Z,80.54
2022-08-22T01:19:37.176Z,80.74
2022-08-22T01:20:37.199Z,80.84
2022-08-22T01:21:37.161Z,80.84
2022-08-22T01:22:37.131Z,80.74
2022-08-22T01:23:37.141Z,80.64
2022-08-22T01:24:37.110Z,80.64
2022-08-22T01:25:37.104Z,80.44
2022-08-22T01:26:37.110Z,80.54
2022-08-22T01:27:37.101Z,80.54
2022-08-22T01:28:37.071Z,80.54
2022-08-22T01:29:37.060Z,80.74
2022-08-22T01:30:37.075Z,80.54
2022-08-22T01:31:37.053Z,80.54
2022-08-22T01:32:37.064Z,80.64
2022-08-22T01:33:37.039Z,80.78
2022-08-22T01:34:37.015Z,80.78
2022-08-22T01:35:37.022Z,80.98
2022-08-22T01:36:36.982Z,81.28
2022-08-22T01:37:38.940Z,81.38
2022-08-22T01:38:37.997Z,81.59
2022-08-22T01:39:36.997Z,81.68
2022-08-22T01:40:36.945Z,81.89
2022-08-22T01:41:37.948Z,81.99
2022-08-22T01:42:36.936Z,82.09
2022-08-22T01:43:58.940Z,82.19
2022-08-22T01:44:37.930Z,82.43
2022-08-22T01:45:36.926Z,82.64
2022-08-22T01:46:36.869Z,82.93
2022-08-22T01:47:37.852Z,83.14
2022-08-22T01:48:36.848Z,83.34
2022-08-22T01:49:36.843Z,83.64
2022-08-22T01:50:36.841Z,83.95
2022-08-22T01:51:36.842Z,84.25
2022-08-22T01:52:36.798Z,84.35
2022-08-22T01:53:36.794Z,84.65
2022-08-22T01:54:36.788Z,84.85
2022-08-22T01:55:36.780Z,85.25
2022-08-22T01:56:36.797Z,85.36
2022-08-22T01:57:36.761Z,85.56
2022-08-22T01:58:36.740Z,85.66
2022-08-22T01:59:42.154Z,85.66
2022-08-22T02:00:37.711Z,85.66
2022-08-22T02:01:36.706Z,85.46
2022-08-22T02:02:36.733Z,85.56
2022-08-22T02:03:36.679Z,85.56
2022-08-22T02:04:36.667Z,85.86
2022-08-22T02:05:36.902Z,86.27
2022-08-22T02:06:36.644Z,86.51
2022-08-22T02:07:36.644Z,86.81
2022-08-22T02:08:36.662Z,87.12
2022-08-22T02:09:36.625Z,87.41
2022-08-22T02:10:36.645Z,87.52
2022-08-22T02:11:36.611Z,87.62
2022-08-22T02:12:36.576Z,87.66
2022-08-22T02:13:36.585Z,87.86
2022-08-22T02:14:36.585Z,87.96
2022-08-22T02:15:36.598Z,88.06
2022-08-22T02:16:36.538Z,88.17
2022-08-22T02:17:36.556Z,88.26
2022-08-22T02:18:36.517Z,88.37
2022-08-22T02:19:36.509Z,88.47
2022-08-22T02:20:36.492Z,88.67
2022-08-22T02:21:36.542Z,88.77
2022-08-22T02:22:36.508Z,88.97
2022-08-22T02:23:37.468Z,89.01
2022-08-22T02:24:36.487Z,89.22
2022-08-22T02:25:36.452Z,89.42
2022-08-22T02:26:36.437Z,89.52
2022-08-22T02:27:36.431Z,89.62
2022-08-22T02:28:36.429Z,89.72
2022-08-22T02:29:36.438Z,89.72
2022-08-22T02:30:36.421Z,89.92
2022-08-22T02:31:36.402Z,89.92
2022-08-22T02:32:36.369Z,89.83
2022-08-22T02:33:36.431Z,89.92
2022-08-22T02:34:36.351Z,89.92
2022-08-22T02:35:36.342Z,89.92
2022-08-22T02:36:36.314Z,89.92
2022-08-22T02:37:36.312Z,90.03
2022-08-22T02:38:36.305Z,90.03
2022-08-22T02:39:36.406Z,90.12
2022-08-22T02:40:36.305Z,90.23
2022-08-22T02:41:36.295Z,90.23
2022-08-22T02:42:36.251Z,90.23
2022-08-22T02:43:36.265Z,90.33
2022-08-22T02:44:36.267Z,90.37
2022-08-22T02:45:36.241Z,90.37
2022-08-22T02:46:36.210Z,90.37
2022-08-22T02:47:36.216Z,90.47
2022-08-22T02:48:36.187Z,90.47
2022-08-22T02:49:36.216Z,90.47
2022-08-22T02:50:37.195Z,90.58
2022-08-22T02:51:36.157Z,90.58
2022-08-22T02:52:36.157Z,90.58
2022-08-22T02:53:36.165Z,90.47
2022-08-22T02:54:36.147Z,90.37
2022-08-22T02:55:36.159Z,90.17
2022-08-22T02:56:36.133Z,90.17
2022-08-22T02:57:39.444Z,90.07
2022-08-22T02:58:36.067Z,89.97
2022-08-22T02:59:36.082Z,90.07
2022-08-22T03:00:36.072Z,90.11
2022-08-22T03:01:36.088Z,90.21
2022-08-22T03:02:36.080Z,90.41
2022-08-22T03:03:36.033Z,90.62
2022-08-22T03:04:36.011Z,90.72
2022-08-22T03:05:36.014Z,90.82
2022-08-22T03:06:35.979Z,90.72
2022-08-22T03:07:36.018Z,90.72
2022-08-22T03:08:35.988Z,90.62
2022-08-22T03:09:35.960Z,90.52
2022-08-22T03:10:35.953Z,90.52
2022-08-22T03:11:35.943Z,90.52
2022-08-22T03:12:35.966Z,90.31
2022-08-22T03:13:35.949Z,90.31
2022-08-22T03:14:35.902Z,90.21
2022-08-22T03:15:35.894Z,90.21
2022-08-22T03:16:35.885Z,90.21
2022-08-22T03:17:35.869Z,90.17
2022-08-22T03:18:35.876Z,90.27
2022-08-22T03:19:35.846Z,90.37
2022-08-22T03:20:35.816Z,90.47
2022-08-22T03:21:35.823Z,90.58
2022-08-22T03:22:35.806Z,90.47
2022-08-22T03:23:35.806Z,90.47
2022-08-22T03:24:35.827Z,90.58
2022-08-22T03:25:36.736Z,90.47
2022-08-22T03:26:35.755Z,90.37
2022-08-22T03:27:35.757Z,90.27
2022-08-22T03:28:35.738Z,90.23
2022-08-22T03:29:35.718Z,90.12
2022-08-22T03:30:35.749Z,90.03
2022-08-22T03:31:35.701Z,89.92
2022-08-22T03:32:35.699Z,89.83
2022-08-22T03:33:35.691Z,89.83
2022-08-22T03:34:35.710Z,89.83
2022-08-22T03:35:35.660Z,89.72
2022-08-22T03:36:35.648Z,89.72
2022-08-22T03:37:35.641Z,89.62
2022-08-22T03:38:35.638Z,89.62
2022-08-22T03:39:35.622Z,89.48
2022-08-22T03:40:35.632Z,89.37
2022-08-22T03:41:35.647Z,89.37
2022-08-22T03:42:35.624Z,89.28
2022-08-22T03:43:35.587Z,89.28
2022-08-22T03:44:35.570Z,89.17
2022-08-22T03:45:35.583Z,89.17
2022-08-22T03:46:35.534Z,89.07
2022-08-22T03:47:35.544Z,88.97
2022-08-22T03:48:35.551Z,88.97
2022-08-22T03:49:35.512Z,88.87
2022-08-22T03:50:35.522Z,88.87
2022-08-22T03:51:35.502Z,88.87
2022-08-22T03:52:35.493Z,88.77
2022-08-22T03:53:35.469Z,88.77
2022-08-22T03:54:35.447Z,88.77
2022-08-22T03:55:35.483Z,88.77
2022-08-22T03:56:35.447Z,88.87
2022-08-22T03:57:35.429Z,88.87
2022-08-22T03:58:35.409Z,88.87
2022-08-22T03:59:35.448Z,88.97
2022-08-22T04:00:36.465Z,88.87
2022-08-22T04:01:36.365Z,88.87
2022-08-22T04:02:43.275Z,88.87
2022-08-22T04:03:36.406Z,88.87
2022-08-22T04:04:35.355Z,88.87
2022-08-22T04:05:35.546Z,88.87
2022-08-22T04:06:35.325Z,88.87
2022-08-22T04:07:35.359Z,88.97
2022-08-22T04:08:35.296Z,89.07
2022-08-22T04:09:37.041Z,89.07
2022-08-22T04:10:35.307Z,89.17
2022-08-22T04:11:35.286Z,89.17
2022-08-22T04:12:35.251Z,89.17
2022-08-22T04:13:35.245Z,89.17
2022-08-22T04:14:35.223Z,89.17
2022-08-22T04:15:35.272Z,89.07
2022-08-22T04:16:35.232Z,89.17
2022-08-22T04:17:35.213Z,89.28
2022-08-22T04:18:35.204Z,89.28
2022-08-22T04:19:35.187Z,89.28
2022-08-22T04:20:35.174Z,89.17
2022-08-22T04:21:35.185Z,89.17
2022-08-22T04:22:35.142Z,89.22
2022-08-22T04:23:35.143Z,89.22
2022-08-22T04:24:35.127Z,89.32
2022-08-22T04:25:35.106Z,89.42
2022-08-22T04:26:35.107Z,89.52
2022-08-22T04:27:35.135Z,89.62
2022-08-22T04:28:35.088Z,89.52
2022-08-22T04:29:35.079Z,89.52
2022-08-22T04:30:35.066Z,89.42
2022-08-22T04:31:35.055Z,89.42
2022-08-22T04:32:35.049Z,89.42
2022-08-22T04:33:35.021Z,89.42
2022-08-22T04:34:35.063Z,89.42
2022-08-22T04:35:35.021Z,89.32
2022-08-22T04:36:34.995Z,89.22
2022-08-22T04:37:34.995Z,89.22
2022-08-22T04:38:34.962Z,89.12
2022-08-22T04:39:34.964Z,89.01
2022-08-22T04:40:34.959Z,89.01
2022-08-22T04:41:34.954Z,88.92
2022-08-22T04:42:34.940Z,89.01
2022-08-22T04:43:34.925Z,89.12
2022-08-22T04:44:34.921Z,89.22
2022-08-22T04:45:34.873Z,89.32
2022-08-22T04:46:37.237Z,89.46
2022-08-22T04:47:34.899Z,89.56
2022-08-22T04:48:34.852Z,89.76
2022-08-22T04:49:34.854Z,89.87
2022-08-22T04:50:34.830Z,89.97
2022-08-22T04:51:34.835Z,89.97
2022-08-22T04:52:34.803Z,90.07
2022-08-22T04:53:34.817Z,90.07
2022-08-22T04:54:34.816Z,89.97
2022-08-22T04:55:34.797Z,90.07
2022-08-22T04:56:34.772Z,90.07
2022-08-22T04:57:34.748Z,90.07
2022-08-22T04:58:34.746Z,90.17
2022-08-22T04:59:34.750Z,90.17
2022-08-22T05:00:34.752Z,90.12
2022-08-22T05:01:34.749Z,90.12
2022-08-22T05:02:34.698Z,90.12
2022-08-22T05:03:34.687Z,89.92
2022-08-22T05:04:34.696Z,89.83
2022-08-22T05:05:34.821Z,89.72
2022-08-22T05:06:34.648Z,89.62
2022-08-22T05:07:36.261Z,89.52
2022-08-22T05:08:34.659Z,89.42
2022-08-22T05:09:34.619Z,89.52
2022-08-22T05:10:34.621Z,89.42
2022-08-22T05:11:34.616Z,89.42
2022-08-22T05:12:34.608Z,89.42
2022-08-22T05:13:34.581Z,89.42
2022-08-22T05:14:34.575Z,89.42
2022-08-22T05:15:34.592Z,89.42
2022-08-22T05:16:34.577Z,89.28
2022-08-22T05:17:34.537Z,89.37
2022-08-22T05:18:34.520Z,89.37
2022-08-22T05:19:34.534Z,89.28
2022-08-22T05:20:34.515Z,89.28
2022-08-22T05:21:34.504Z,89.28
2022-08-22T05:22:34.513Z,89.28
2022-08-22T05:23:34.464Z,89.28
2022-08-22T05:24:34.445Z,89.13
2022-08-22T05:25:34.706Z,89.03
2022-08-22T05:26:34.450Z,89.03
2022-08-22T05:27:34.417Z,89.03
2022-08-22T05:28:34.415Z,88.93
2022-08-22T05:29:34.398Z,88.83
2022-08-22T05:30:34.430Z,88.68
2022-08-22T05:31:34.375Z,88.59
2022-08-22T05:32:35.344Z,88.48
2022-08-22T05:33:34.355Z,88.39
2022-08-22T05:34:34.367Z,88.08
2022-08-22T05:35:34.327Z,87.78
2022-08-22T05:36:34.357Z,87.54
2022-08-22T05:37:34.318Z,87.34
2022-08-22T05:38:34.301Z,87.34
2022-08-22T05:39:34.291Z,87.23
2022-08-22T05:40:34.304Z,87.23
2022-08-22T05:41:34.297Z,87.13
2022-08-22T05:42:34.260Z,87.03
2022-08-22T05:43:34.261Z,86.93
2022-08-22T05:44:34.242Z,86.93
2022-08-22T05:45:34.230Z,86.73
2022-08-22T05:46:34.223Z,86.83
2022-08-22T05:47:34.199Z,86.73
2022-08-22T05:48:34.231Z,86.63
2022-08-22T05:49:34.182Z,86.73
2022-08-22T05:50:34.175Z,86.69
2022-08-22T05:51:34.161Z,86.58
2022-08-22T05:52:34.215Z,86.58
2022-08-22T05:53:34.170Z,86.49
2022-08-22T05:54:34.527Z,86.29
2022-08-22T05:55:34.126Z,86.38
2022-08-22T05:56:34.129Z,86.29
2022-08-22T05:57:34.088Z,86.18
2022-08-22T05:58:34.124Z,86.04
2022-08-22T05:59:34.088Z,86.04
2022-08-22T06:00:34.090Z,85.94
2022-08-22T06:01:34.162Z,85.74
2022-08-22T06:02:34.050Z,85.64
2022-08-22T06:03:34.035Z,85.54
2022-08-22T06:04:34.016Z,85.40
2022-08-22T06:05:34.098Z,85.20
2022-08-22T06:06:33.997Z,85.20
2022-08-22T06:07:33.997Z,85.00
2022-08-22T06:08:33.991Z,85.10
2022-08-22T06:09:35.246Z,84.89
2022-08-22T06:10:33.950Z,84.80
2022-08-22T06:11:34.157Z,84.65
2022-08-22T06:12:34.070Z,84.65
2022-08-22T06:13:33.920Z,84.55
2022-08-22T06:14:33.946Z,84.45
2022-08-22T06:15:33.898Z,84.25
2022-08-22T06:16:33.896Z,84.05
2022-08-22T06:17:33.881Z,83.84
2022-08-22T06:18:33.851Z,83.81
2022-08-22T06:19:33.853Z,83.71
2022-08-22T06:20:33.855Z,83.61
2022-08-22T06:21:37.644Z,83.51
2022-08-22T06:22:34.818Z,83.40
2022-08-22T06:23:33.852Z,83.20
2022-08-22T06:24:33.811Z,83.11
2022-08-22T06:25:33.801Z,82.97
2022-08-22T06:26:33.792Z,82.86
2022-08-22T06:27:33.835Z,82.76
2022-08-22T06:28:33.767Z,82.66
2022-08-22T06:29:33.742Z,82.56
2022-08-22T06:30:33.766Z,82.46
2022-08-22T06:31:33.766Z,82.16
2022-08-22T06:32:59.290Z,82.26
2022-08-22T06:33:34.701Z,82.22
2022-08-22T06:34:33.689Z,82.12
2022-08-22T06:35:33.678Z,82.12
2022-08-22T06:36:33.699Z,81.82
2022-08-22T06:37:33.695Z,81.82
2022-08-22T06:38:33.656Z,81.82
2022-08-22T06:39:33.631Z,81.78
2022-08-22T06:40:33.635Z,81.18
2022-08-22T06:41:33.625Z,80.88
2022-08-22T06:42:33.633Z,80.88
2022-08-22T06:43:33.598Z,80.77
2022-08-22T06:44:33.581Z,80.57
2022-08-22T06:45:33.582Z,80.63
2022-08-22T06:46:33.571Z,80.33
2022-08-22T06:47:33.546Z,80.43
2022-08-22T06:48:33.543Z,80.24
2022-08-22T06:49:33.534Z,79.99
2022-08-22T06:50:33.523Z,79.69
2022-08-22T06:51:33.516Z,79.60
2022-08-22T06:52:33.581Z,79.09
2022-08-22T06:53:33.464Z,79.09
2022-08-22T06:54:34.535Z,78.79
2022-08-22T06:55:33.475Z,78.39
2022-08-22T06:56:33.441Z,78.25
2022-08-22T06:57:33.443Z,78.35
2022-08-22T06:58:34.239Z,78.45
2022-08-22T06:59:33.394Z,78.45
2022-08-22T07:00:33.413Z,78.15
2022-08-22T07:01:33.448Z,78.15
2022-08-22T07:02:33.407Z,78.15
2022-08-22T07:03:33.376Z,78.15
2022-08-22T07:04:33.398Z,77.95
2022-08-22T07:05:33.483Z,78.05
2022-08-22T07:06:33.367Z,78.25
2022-08-22T07:07:33.313Z,78.15
2022-08-22T07:08:38.476Z,78.15
2022-08-22T07:09:34.339Z,78.05
2022-08-22T07:10:33.296Z,77.51
2022-08-22T07:11:33.279Z,77.51
2022-08-22T07:12:33.265Z,77.41
2022-08-22T07:13:33.255Z,77.31
2022-08-22T07:14:33.239Z,77.21
2022-08-22T07:15:33.258Z,76.71
2022-08-22T07:16:33.224Z,76.71
2022-08-22T07:17:33.200Z,76.81
2022-08-22T07:18:33.197Z,76.81
2022-08-22T07:19:33.186Z,76.67
2022-08-22T07:20:33.211Z,76.47
2022-08-22T07:21:36.238Z,76.57
2022-08-22T07:22:33.162Z,76.57
2022-08-22T07:23:33.140Z,76.67
2022-08-22T07:24:33.138Z,76.67
2022-08-22T07:25:33.146Z,76.54
2022-08-22T07:26:33.145Z,76.34
2022-08-22T07:27:33.135Z,76.24
2022-08-22T07:28:36.969Z,76.34
2022-08-22T07:29:34.125Z,76.24
2022-08-22T07:30:33.059Z,76.14
2022-08-22T07:31:33.061Z,75.93
2022-08-22T07:32:33.061Z,75.60
2022-08-22T07:33:33.045Z,75.40
2022-08-22T07:34:33.017Z,75.30
2022-08-22T07:35:32.999Z,75.20
2022-08-22T07:36:33.027Z,75.00
2022-08-22T07:37:32.991Z,74.87
2022-08-22T07:38:32.963Z,74.96
2022-08-22T07:39:33.650Z,74.87
2022-08-22T07:40:32.971Z,74.87
2022-08-22T07:41:32.946Z,74.83
2022-08-22T07:42:32.950Z,74.63
2022-08-22T07:43:32.924Z,74.63
2022-08-22T07:44:32.954Z,74.33
2022-08-22T07:45:32.925Z,74.03
2022-08-22T07:46:32.900Z,73.93
2022-08-22T07:47:32.902Z,73.59
2022-08-22T07:48:32.883Z,73.49
2022-08-22T07:49:32.885Z,73.19
2022-08-22T07:50:32.853Z,73.09
2022-08-22T07:51:32.837Z,72.69
2022-08-22T07:52:32.866Z,72.59
2022-08-22T07:53:32.811Z,72.26
2022-08-22T07:54:32.805Z,72.16
2022-08-22T07:55:32.805Z,72.26
2022-08-22T07:56:32.796Z,72.26
2022-08-22T07:57:32.778Z,71.86
2022-08-22T07:58:32.758Z,71.46
2022-08-22T07:59:32.786Z,71.36
2022-08-22T08:00:32.757Z,71.42
2022-08-22T08:01:32.759Z,71.52
2022-08-22T08:02:32.774Z,71.42
2022-08-22T08:03:32.756Z,71.12
2022-08-22T08:04:35.794Z,71.12
2022-08-22T08:05:34.185Z,70.59
2022-08-22T08:06:32.657Z,69.89
2022-08-22T08:07:32.664Z,69.59
2022-08-22T08:08:32.641Z,69.29
2022-08-22T08:09:32.662Z,69.29
2022-08-22T08:10:32.800Z,69.20
2022-08-22T08:11:32.610Z,69.49
2022-08-22T08:12:32.682Z,68.96
2022-08-22T08:13:32.613Z,68.76
2022-08-22T08:14:32.588Z,68.56
2022-08-22T08:15:32.602Z,68.16
2022-08-22T08:16:32.579Z,67.96
2022-08-22T08:17:32.576Z,67.96
2022-08-22T08:18:32.563Z,68.06
2022-08-22T08:19:32.579Z,68.03
2022-08-22T08:20:32.565Z,67.73
2022-08-22T08:21:32.556Z,67.13
2022-08-22T08:22:32.540Z,67.13
2022-08-22T08:23:34.922Z,66.93
2022-08-22T08:24:39.935Z,66.83
2022-08-22T08:25:33.477Z,66.53
2022-08-22T08:26:32.449Z,66.33
2022-08-22T08:27:32.536Z,66.63
2022-08-22T08:28:32.436Z,66.20
2022-08-22T08:29:32.423Z,66.30
2022-08-22T08:30:32.421Z,66.70
2022-08-22T08:31:32.407Z,66.70
2022-08-22T08:32:32.408Z,66.40
2022-08-22T08:33:32.463Z,66.00
2022-08-22T08:34:32.384Z,65.31
2022-08-22T08:35:32.393Z,65.20
2022-08-22T08:36:33.360Z,64.67
2022-08-22T08:37:32.357Z,64.48
2022-08-22T08:38:32.395Z,63.88
2022-08-22T08:39:35.463Z,63.48
2022-08-22T08:40:32.343Z,63.08
2022-08-22T08:41:32.353Z,62.59
2022-08-22T08:42:32.294Z,62.59
2022-08-22T08:43:33.002Z,62.78
2022-08-22T08:44:32.304Z,62.98
2022-08-22T08:45:32.260Z,62.78
2022-08-22T08:46:32.239Z,62.85
2022-08-22T08:47:32.256Z,62.55
2022-08-22T08:48:32.211Z,62.65
2022-08-22T08:50:33.194Z,62.75
2022-08-22T08:51:32.193Z,62.45
2022-08-22T08:52:32.197Z,62.02
2022-08-22T08:53:32.206Z,62.13
2022-08-22T08:54:32.157Z,60.83
2022-08-22T08:55:32.152Z,60.83
2022-08-22T08:56:32.118Z,60.24
2022-08-22T08:57:32.111Z,60.43
2022-08-22T08:58:32.089Z,61.03
2022-08-22T08:59:32.114Z,60.93
2022-08-22T09:00:32.077Z,60.13
2022-08-22T09:01:32.177Z,59.14
2022-08-22T09:02:32.108Z,59.34
2022-08-22T09:03:32.042Z,59.14
2022-08-22T09:04:32.113Z,59.83
2022-08-22T09:05:32.189Z,59.91
2022-08-22T09:06:32.012Z,58.91
2022-08-22T09:07:32.016Z,58.22
2022-08-22T09:08:31.987Z,58.11
2022-08-22T09:09:31.994Z,58.51
2022-08-22T09:10:31.978Z,58.18
2022-08-22T09:11:32.024Z,57.89
2022-08-22T09:12:31.942Z,58.18
2022-08-22T09:13:40.699Z,57.89
2022-08-22T09:14:32.964Z,58.26
2022-08-22T09:15:31.932Z,57.76
2022-08-22T09:16:32.926Z,57.66
2022-08-22T09:17:31.906Z,57.66
2022-08-22T09:18:31.897Z,57.06
2022-08-22T09:19:31.905Z,56.67
2022-08-22T09:20:31.845Z,55.67
2022-08-22T09:21:31.907Z,56.27
2022-08-22T09:22:34.922Z,56.17
2022-08-22T09:23:32.837Z,56.27
2022-08-22T09:24:31.838Z,55.77
2022-08-22T09:26:32.798Z,56.14
2022-08-22T09:27:31.785Z,55.65
2022-08-22T09:28:31.815Z,55.85
2022-08-22T09:29:31.800Z,55.85
2022-08-22T09:30:31.770Z,55.35
2022-08-22T09:32:32.739Z,55.65
2022-08-22T09:33:31.774Z,55.65
2022-08-22T09:34:31.746Z,55.62
2022-08-22T09:35:31.708Z,55.82
2022-08-22T09:36:31.681Z,55.22
2022-08-22T09:37:31.671Z,55.82
2022-08-22T09:38:31.792Z,55.82
2022-08-22T09:39:31.705Z,55.22
2022-08-22T09:40:31.643Z,54.80
2022-08-22T09:41:31.633Z,53.11
2022-08-22T09:42:31.644Z,52.81
2022-08-22T09:43:33.681Z,53.31
2022-08-22T09:44:31.601Z,52.42
2022-08-22T09:45:31.628Z,52.12
2022-08-22T09:46:36.715Z,52.42
2022-08-22T09:47:32.852Z,52.02
2022-08-22T09:48:31.583Z,52.61
2022-08-22T09:49:31.557Z,52.81
2022-08-22T09:50:31.530Z,53.41
2022-08-22T09:51:33.134Z,53.91
2022-08-22T09:52:33.868Z,54.00
2022-08-22T09:53:31.514Z,53.58
2022-08-22T09:54:32.859Z,53.38
2022-08-22T09:55:35.146Z,53.78
2022-08-22T09:56:31.492Z,53.36
2022-08-22T09:57:31.507Z,52.56
2022-08-22T09:58:31.433Z,52.17
2022-08-22T09:59:31.436Z,51.57
2022-08-22T10:00:31.430Z,51.47
2022-08-22T10:01:32.805Z,51.57
2022-08-22T10:02:31.425Z,51.54
2022-08-22T10:03:31.407Z,51.65
2022-08-22T10:04:31.427Z,51.45
2022-08-22T10:05:41.283Z,51.75
2022-08-22T10:06:32.357Z,50.76
2022-08-22T10:07:31.364Z,50.36
2022-08-22T10:08:31.331Z,50.65
2022-08-22T10:09:31.937Z,50.85
2022-08-22T10:10:31.343Z,50.76
2022-08-22T10:11:31.325Z,51.35
2022-08-22T10:12:35.984Z,51.45
2022-08-22T10:13:32.305Z,51.35
2022-08-22T10:14:31.267Z,51.54
2022-08-22T10:15:31.295Z,52.44
2022-08-22T10:16:31.276Z,51.75
2022-08-22T10:17:31.266Z,50.76
2022-08-22T10:18:31.243Z,50.53
2022-08-22T10:19:31.262Z,50.34
2022-08-22T10:20:31.259Z,50.83
2022-08-22T10:21:31.228Z,51.62
2022-08-22T10:22:31.207Z,52.69
2022-08-22T10:23:31.179Z,52.88
2022-08-22T10:24:31.196Z,51.79
2022-08-22T10:25:31.165Z,51.79
2022-08-22T10:26:33.212Z,51.60
2022-08-22T10:27:32.144Z,50.98
2022-08-22T10:28:31.120Z,50.58
2022-08-22T10:29:31.116Z,49.81
2022-08-22T10:30:31.127Z,49.12
2022-08-22T10:31:31.165Z,50.11
2022-08-22T10:32:31.107Z,49.42
2022-08-22T10:33:31.082Z,49.81
2022-08-22T10:34:31.067Z,50.11
2022-08-22T10:35:33.707Z,50.31
2022-08-22T10:36:31.036Z,48.03
2022-08-22T10:37:31.064Z,48.92
2022-08-22T10:38:31.031Z,48.33
2022-08-22T10:39:32.550Z,48.72
2022-08-22T10:40:31.007Z,49.22
2022-08-22T10:41:31.036Z,49.02
2022-08-22T10:42:35.281Z,49.22
2022-08-22T10:43:30.965Z,48.75
2022-08-22T10:44:30.978Z,48.65
2022-08-22T10:45:35.734Z,48.65
2022-08-22T10:46:31.971Z,48.65
2022-08-22T10:47:30.963Z,48.55
2022-08-22T10:48:30.910Z,48.65
2022-08-22T10:49:30.921Z,49.66
2022-08-22T10:50:31.028Z,48.97
2022-08-22T10:51:30.923Z,49.37
2022-08-22T10:52:30.900Z,49.37
2022-08-22T10:53:30.855Z,49.66
2022-08-22T10:54:30.844Z,50.23
2022-08-22T10:55:30.850Z,50.34
2022-08-22T10:56:30.804Z,50.13
2022-08-22T10:57:30.853Z,50.41
2022-08-22T10:58:30.803Z,49.71
2022-08-22T10:59:30.790Z,49.02
2022-08-22T11:00:30.816Z,49.02
2022-08-22T11:01:38.156Z,49.52
2022-08-22T11:02:31.806Z,49.52
2022-08-22T11:03:30.807Z,49.62
2022-08-22T11:04:30.728Z,49.49
2022-08-22T11:05:30.927Z,49.40
2022-08-22T11:06:30.728Z,49.69
2022-08-22T11:07:30.742Z,49.89
2022-08-22T11:08:30.731Z,49.49
2022-08-22T11:09:34.500Z,49.10
2022-08-22T11:10:31.709Z,49.10
2022-08-22T11:11:32.621Z,49.17
2022-08-22T11:12:35.127Z,48.70
2022-08-22T11:13:30.657Z,49.27
2022-08-22T11:14:30.626Z,49.17
2022-08-22T11:15:34.986Z,48.58
2022-08-22T11:16:30.620Z,48.08
2022-08-22T11:17:34.574Z,47.69
2022-08-22T11:18:31.604Z,48.58
2022-08-22T11:19:30.604Z,49.07
2022-08-22T11:20:30.583Z,48.88
2022-08-22T11:21:30.574Z,48.48
2022-08-22T11:22:30.570Z,48.68
2022-08-22T11:23:30.546Z,48.55
2022-08-22T11:24:35.345Z,49.35
2022-08-22T11:25:38.768Z,49.15
2022-08-22T11:26:35.870Z,49.05
2022-08-22T11:27:40.139Z,49.15
2022-08-22T11:28:31.498Z,49.15
2022-08-22T11:29:30.707Z,49.15
2022-08-22T11:30:30.459Z,49.15
2022-08-22T11:31:31.762Z,49.15
2022-08-22T11:32:31.462Z,48.75
2022-08-22T11:33:46.645Z,48.55
2022-08-22T11:34:31.464Z,47.77
2022-08-22T11:35:30.445Z,48.65
2022-08-22T11:36:31.050Z,47.96
2022-08-22T11:37:42.438Z,48.16
2022-08-22T11:38:32.609Z,48.16
2022-08-22T11:39:30.351Z,47.56
2022-08-22T11:40:30.428Z,48.26
2022-08-22T11:41:30.364Z,46.78
2022-08-22T11:42:30.332Z,46.38
2022-08-22T11:43:32.600Z,47.37
2022-08-22T11:44:30.301Z,47.47
2022-08-22T11:45:30.318Z,48.16
2022-08-22T11:46:30.283Z,48.03
2022-08-22T11:47:30.327Z,48.14
2022-08-22T11:48:30.289Z,47.64
2022-08-22T11:49:32.639Z,46.85
2022-08-22T11:50:30.266Z,47.34
2022-08-22T11:51:30.249Z,47.44
2022-08-22T11:52:30.228Z,48.73
2022-08-22T11:53:30.318Z,48.03
2022-08-22T11:54:31.160Z,47.84
2022-08-22T11:55:33.296Z,47.42
2022-08-22T11:56:30.169Z,47.62
2022-08-22T11:57:30.211Z,47.42
2022-08-22T11:58:30.165Z,47.22
2022-08-22T11:59:30.178Z,47.81
2022-08-22T12:00:30.152Z,47.13
2022-08-22T12:01:34.413Z,45.94
2022-08-22T12:02:30.885Z,45.45
2022-08-22T12:03:30.104Z,46.53
2022-08-22T12:04:30.092Z,46.14
2022-08-22T12:05:30.283Z,46.53
2022-08-22T12:06:30.085Z,46.14
2022-08-22T12:07:30.117Z,45.94
2022-08-22T12:08:30.065Z,45.74
2022-08-22T12:09:30.114Z,45.74
2022-08-22T12:10:30.050Z,45.64
2022-08-22T12:11:30.034Z,46.14
2022-08-22T12:12:30.034Z,46.04
2022-08-22T12:13:34.919Z,46.23
2022-08-22T12:14:30.975Z,46.70
2022-08-22T12:15:30.029Z,46.81
2022-08-22T12:16:29.958Z,47.79
2022-08-22T12:17:55.895Z,47.57
2022-08-22T12:18:30.938Z,46.88
2022-08-22T12:19:32.701Z,47.57
2022-08-22T12:20:29.964Z,46.17
2022-08-22T12:21:29.939Z,45.18
2022-08-22T12:22:29.902Z,44.22
2022-08-22T12:23:38.070Z,44.32
2022-08-22T12:24:30.909Z,45.10
2022-08-22T12:25:29.874Z,45.01
2022-08-22T12:26:29.939Z,44.71
2022-08-22T12:27:29.854Z,44.32
2022-08-22T12:28:29.855Z,45.10
2022-08-22T12:29:40.121Z,44.91
2022-08-22T12:30:30.821Z,46.09
2022-08-22T12:31:29.837Z,46.07
2022-08-22T12:32:29.843Z,45.08
2022-08-22T12:33:29.874Z,45.38
2022-08-22T12:34:29.778Z,43.80
2022-08-22T12:35:30.521Z,44.00
2022-08-22T12:36:29.764Z,44.00
2022-08-22T12:37:29.791Z,43.98
2022-08-22T12:38:31.334Z,44.47
2022-08-22T12:39:29.717Z,43.98
2022-08-22T12:40:29.783Z,45.34
2022-08-22T12:41:34.703Z,46.32
2022-08-22T12:42:31.008Z,46.28
2022-08-22T12:43:29.809Z,45.76
2022-08-22T12:44:29.673Z,44.76
2022-08-22T12:45:29.673Z,44.44
2022-08-22T12:46:29.715Z,44.73
2022-08-22T12:47:29.635Z,44.62
2022-08-22T12:48:29.645Z,44.22
2022-08-22T12:49:29.620Z,43.80